Strona główna
METAR-TAF:

METAR-TAF

Lotnisko :

Entrammes

Laval, Francja

Szerokość geograficzna: 48-01-56N, Długość geograficzna: 000-44-34W, wysokość: 101 m

Aktualna obserwacja pogody

Raport powstał 35 minut temu, godzina 03:30 UTC
Wiatr 5 kt od zachód
Temperatura 7°C
Wilgotność 100%
Ciśnienie 1013 hPa
Widzialność 10 km lub więcej
słaby deszcz

METAR: LFOV 110330Z AUTO 27005KT 9999 -RA FEW034/// OVC064/// ///TCU 07/07 Q1013

czas: 05:05 (04:05 UTC)


TAF: brakujący

Obserwacja i prognoza pogody dla ponad 4000 lotnisk (raport METAR i TAF).

Dostępne stacje oznaczono żółtymi i czerwonymi punktami na mapie.

Najedź kursorem aby zobaczyć nazwę stacji.

Kliknij aby zobaczyć obserwacje i prognozy pogody.

Aby zmienić mapę: kliknij na zielony przycisk z czarnym krzyżykiem, aby powiększyć; na zielony przycisk z myślnikiem, aby pomniejszyć; na zielone strzałki, aby przejść do map sąsiednich.


METAR-TAF: